Victor Silva

Scout - Atlético Mineiro
19 Aug 2027
Donnerstag
Verarbeitung

Persönlichkeit

Anpassungsfähigkeit (1) Ehrgeiz (5) Kontroverse (18) Loyalität (11) Druck (3) Professionalität (16) Fairness (3) Temperament (18)

Profil

Trainerstil Demokratisch
Lizenz Kontinentale C
Entschlossenheit 7
Menschenführung 7
Motivation 11
Disziplin 11
Arbeitszufriedenheit
65%
Ermüdung
0%
Rolle Scout
Gehalt 41.0K p/W
Vertrag 14.03.2028

Leistung

Verhalten Gut
Trainingseffektivität
34%
Spielerentwicklung
45%
Verletzungsprävention
40%
Taktische Umsetzung
60%

Letzte Ereignisse

Nahm an einer Scouting-Besprechung teil 14T her
Nahm an einer Scouting-Besprechung teil 21T her
Nahm an einer Scouting-Besprechung teil 28T her
Nahm an einer Scouting-Besprechung teil 35T her
Nahm an einer Scouting-Besprechung teil 42T her
Geburtstag 42T her
Nahm an einer Scouting-Besprechung teil 49T her
Nahm an einer Scouting-Besprechung teil 56T her

Aktuell beobachtet

148
Spieler Verein Status Fähigkeit Vertrauen Beobachtet Zuletzt beobachtet Letzte Stimme
Bernardo Lima Porto Aktiv 96 / 111 40% 1 31.05.2027 -
Matías Gómez Granada Aktiv 112 / 119 40% 1 31.05.2027 -
Pablo Felipe West Ham United Aktiv 136 / 141 40% 4 30.05.2027 -
Mees Rijks Bristol Rovers Aktiv 108 / 110 40% 2 30.05.2027 -
Mohamed-Ali Cho Hull City Aktiv 139 / 132 40% 1 30.05.2027 -
Sergio Barlocco Trento Aktiv 108 / 120 40% 2 28.05.2027 -
Samu Aghehowa AS Roma Aktiv 147 / 158 40% 5 27.05.2027 -
Ilyas Ansah Hull City Aktiv 130 / 131 40% 6 27.05.2027 -
Iwan Morgan Grimsby Town Aktiv 110 / 120 40% 2 27.05.2027 -
George Wickens Lincoln City Aktiv 116 / 113 40% 3 26.05.2027 -
Zach Hemming Chesterfield Aktiv 114 / 110 40% 4 26.05.2027 -
Yoan Bonny Inter Aktiv 150 / 148 40% 2 26.05.2027 Mehr Infos nötig
Tom Cannon Sheffield United Aktiv 125 / 132 40% 2 26.05.2027 -
Leo Castledine Middlesbrough Aktiv 129 / 129 40% 1 26.05.2027 -
Gianluca Saro Foggia Aktiv 117 / 116 40% 1 26.05.2027 -
Cesare Galeotti Trapani Aktiv 109 / 110 40% 1 24.05.2027 -
Filip Marschall Stevenage Aktiv 111 / 113 40% 2 22.05.2027 -
Milan van Ewijk Mansfield Town Aktiv 133 / 127 40% 4 19.05.2027 -
Soungoutou Magassa West Ham United Aktiv 137 / 131 40% 2 19.05.2027 -
Adam Wharton Crystal Palace Aktiv 155 / 153 40% 2 19.05.2027 -
Abu Kamara Portsmouth Aktiv 115 / 114 40% 1 19.05.2027 -
Jan Bürger Gillingham Aktiv 114 / 121 40% 2 18.05.2027 -
Kazunari Kita Real Sociedad Aktiv 95 / 109 40% 1 18.05.2027 -
Sascha Britschgi Padova Aktiv 120 / 127 40% 1 18.05.2027 -
Shea Charles Southampton Aktiv 134 / 130 40% 2 15.05.2027 -
Ethan Galbraith Swansea City Aktiv 134 / 126 40% 2 15.05.2027 -
Conor Gallagher Tottenham Aktiv 149 / 156 40% 2 15.05.2027 -
Afonso Assis Moreirense Aktiv 112 / 110 40% 1 15.05.2027 -
Davide Bartesaghi AC Milan Aktiv 130 / 135 40% 1 15.05.2027 -
Tiago Freitas Benfica Aktiv 113 / 119 40% 1 15.05.2027 -
Assane Diao Lazio Aktiv 150 / 155 40% 5 12.05.2027 -
Aral Şimşir Trabzonspor Aktiv 129 / 138 40% 2 12.05.2027 -
Yehor Yarmoliuk Brentford Aktiv 152 / 153 40% 2 11.05.2027 -
Florentino Luís Ipswich Town Aktiv 142 / 138 40% 4 10.05.2027 -
Hector Ramirez Newcastle United Aktiv 158 / 150 40% 2 10.05.2027 Mehr Infos nötig
Lorenzo Palmisani Frosinone Aktiv 133 / 134 40% 2 10.05.2027 -
James Trafford Leeds United Aktiv 142 / 143 40% 1 10.05.2027 -
Curtis Jones Inter Aktiv 163 / 157 40% 1 10.05.2027 -
Will Lankshear Middlesbrough Aktiv 123 / 121 40% 2 09.05.2027 -
Richard Koné Queens Park Rangers Aktiv 128 / 125 40% 2 09.05.2027 -
Bradley Fink Wycombe Wanderers Aktiv 108 / 108 40% 1 09.05.2027 -
Anatolii Trubin Juventus Aktiv 152 / 150 40% 3 06.05.2027 -
Jorge Meireles AVS Aktiv 112 / 107 40% 3 05.05.2027 -
Shahriar Dejagah Tractor Aktiv 130 / 121 40% 1 05.05.2027 -
Luke McNally Bristol City Aktiv 129 / 124 40% 2 04.05.2027 -
Pedro Porro Tottenham Aktiv 145 / 142 40% 1 04.05.2027 -
Nicolò Tresoldi Club Brugge Aktiv 138 / 129 40% 4 02.05.2027 -
Kelly Saravanan Salford City Aktiv 106 / 107 40% 2 01.05.2027 -
Gonçalo Oliveira Benfica Aktiv 112 / 108 40% 1 01.05.2027 -
Josh King Chelsea Aktiv 137 / 152 40% 1 01.05.2027 -
Bandar Yaqoob ES Setif Aktiv 128 / 127 40% 1 30.04.2027 -
Majid Beiranvand Rah Ahan Aktiv 111 / 106 40% 1 29.04.2027 -
Manu Koné AS Roma Aktiv 162 / 160 40% 1 27.04.2027 -
Sergi Altimira Sporting CP Aktiv 142 / 144 40% 4 25.04.2027 -
Ousmane Diomande Nottingham Forest Aktiv 148 / 159 40% 1 25.04.2027 -
Dom Ballard Leyton Orient Aktiv 124 / 118 40% 2 24.04.2027 -
Martín Tejón Maritimo Aktiv 114 / 121 40% 2 23.04.2027 -
Gonzalo Fulham Aktiv 145 / 149 40% 1 23.04.2027 -
Toni Tamarit Alverca Aktiv 120 / 123 40% 3 22.04.2027 -
Vitor Hugo Lusitânia Lourosa Aktiv 103 / 104 40% 1 22.04.2027 -
Jordan Holsgrove Estoril Praia Aktiv 130 / 128 40% 1 21.04.2027 -
Robin Roefs Sunderland Aktiv 144 / 148 40% 4 19.04.2027 -
Radek Vítek Middlesbrough Aktiv 137 / 143 40% 3 19.04.2027 -
Michael Cooper Sheffield United Aktiv 129 / 134 40% 4 19.04.2027 -
Korede Osundina Casa Pia Aktiv 117 / 120 40% 2 16.04.2027 -
Lucas Cañizares Tondela Aktiv 106 / 105 40% 4 15.04.2027 -
Manuel Baldé Asante Kotoko Aktiv 101 / 104 40% 4 15.04.2027 -
Kostantis Tzolakis Hull City Aktiv 146 / 137 40% 2 15.04.2027 -
Neneca Santa Clara Aktiv 105 / 110 40% 2 14.04.2027 -
Kevin Vazquez Cruz Azul Aktiv 134 / 142 40% 2 14.04.2027 -
José Pachuca Puebla Aktiv 112 / 117 40% 1 14.04.2027 -
Noah Sadiki Sunderland Aktiv 143 / 141 40% 1 12.04.2027 -
Víctor Gómez Braga Aktiv 138 / 132 40% 1 12.04.2027 -
Harry Leonard Peterborough United Verloren 105 / 111 40% 1 11.04.2027 -
Tommy Conway Middlesbrough Aktiv 124 / 135 40% 1 11.04.2027 -
Imrân Louza Watford Aktiv 132 / 133 40% 1 09.04.2027 -
Welington Southampton Aktiv 134 / 136 40% 1 09.04.2027 -
Tyreece Campbell Charlton Athletic Aktiv 120 / 122 40% 1 07.04.2027 -
Nicolas Madsen Queens Park Rangers Aktiv 128 / 129 40% 1 06.04.2027 -
Alan Varela Porto Aktiv 148 / 152 40% 4 05.04.2027 -
Lewis Ferguson Bologna Aktiv 146 / 142 40% 1 05.04.2027 -
Tomás Araújo Benfica Aktiv 151 / 140 40% 4 02.04.2027 -
Alexsandro Ribeiro LOSC Lille Aktiv 142 / 151 40% 1 02.04.2027 -
Jonathan Fischer FC Metz Aktiv 132 / 136 40% 1 01.04.2027 -
João Gonçalves Felgueiras Aktiv 119 / 108 40% 2 26.03.2027 -
Yehvann Diouf OGC Nice Aktiv 142 / 135 40% 2 26.03.2027 -
Eduardo Quaresma Sporting CP Aktiv 143 / 148 40% 2 19.03.2027 -
Alfonso Pastor Maritimo Aktiv 108 / 104 40% 1 19.03.2027 -
Erick Reyes Toluca Aktiv 142 / 146 40% 3 17.03.2027 -
Zeno Debast Sporting CP Aktiv 137 / 139 40% 3 12.03.2027 -
Iván Fresneda Sporting CP Aktiv 143 / 135 40% 1 12.03.2027 -
Christian Krasnodar Aktiv 135 / 140 40% 2 08.03.2027 -
Alberto Costa Porto Aktiv 148 / 137 40% 1 08.03.2027 -
Gustaf Lagerbielke Braga Aktiv 141 / 130 40% 2 03.03.2027 -
Gonçalo Inácio Sporting CP Aktiv 152 / 148 40% 2 26.02.2027 -
Fidel Ambríz Monterrey Aktiv 129 / 133 40% 1 19.02.2027 -
Lukas Jensen Millwall Aktiv 119 / 115 40% 1 17.02.2027 -
Lazar Carević Famalicao Aktiv 132 / 124 40% 1 16.02.2027 -
Francisco Meixedo Feirense Aktiv 115 / 107 40% 1 16.02.2027 -
Dara O'Shea Ipswich Town Aktiv 140 / 128 40% 1 16.02.2027 -
Max Bird Birmingham Aktiv 129 / 132 40% 1 16.02.2027 -
Nicolás Fernández Mercau Shakhtar Aktiv 136 / 141 40% 1 11.02.2027 -
Dinis Pinto Moreirense Aktiv 129 / 123 40% 1 11.02.2027 -
Beau Reus Waasland-Beveren Aktiv 126 / 130 40% 1 06.02.2027 -
Jamie Cumming Oxford United Aktiv 121 / 118 40% 2 05.02.2027 -
Christian Joel Sánchez Leiria Aktiv 114 / 112 40% 1 29.01.2027 -
Grégoire Coudert Burnley Aktiv 126 / 119 40% 1 15.01.2027 -
Raúl Rangel Sporting CP Aktiv 134 / 129 40% 1 14.01.2027 -
Hugo Souza Corinthians Aktiv 140 / 143 40% 1 14.01.2027 -
Bradley Mabunda SuperSport United Aktiv 110 / 102 40% 1 12.01.2027 -
Figueiredo Alverca Aktiv 122 / 136 40% 2 29.11.2026 -
Jesús Angulo Tigres Aktiv 132 / 138 40% 1 25.11.2026 -
Lucas Veríssimo Santos Aktiv 139 / 132 40% 1 25.11.2026 -
Vinícius Lopes Santa Clara Aktiv 121 / 110 40% 2 22.11.2026 -
Emerson Royal Flamengo Aktiv 131 / 126 40% 1 21.11.2026 -
Jalen Blesa Rio Ave Aktiv 116 / 127 40% 2 20.11.2026 -
Rodrigo Castillo Fluminense Aktiv 132 / 122 40% 2 20.11.2026 -
José Manuel López Palmeiras Aktiv 140 / 130 40% 2 20.11.2026 -
Danilo Botafogo Aktiv 136 / 139 40% 2 14.11.2026 -
Lucas Paquetá Flamengo Aktiv 138 / 142 40% 1 14.11.2026 -
Caio Alexandre Bahia Aktiv 138 / 136 40% 1 14.11.2026 -
Jan Bednarek Porto Aktiv 144 / 135 40% 2 12.11.2026 -
Mathías Villasanti Grêmio Aktiv 135 / 138 40% 1 12.11.2026 -
Gustavo Silva Vitoria Guimaraes Aktiv 125 / 121 40% 1 09.11.2026 -
Pau Víctor AVS Aktiv 135 / 136 40% 3 07.11.2026 -
Kévin Denkey FC Cincinnati Aktiv 127 / 124 40% 3 05.11.2026 -
Mauro Arambarri River Plate Aktiv 154 / 157 40% 2 05.11.2026 -
Fally Mayulu Arouca Aktiv 117 / 107 40% 1 05.11.2026 -
Paulo Henrique Vasco da Gama Aktiv 129 / 129 40% 1 05.11.2026 -
Gabriel Veron Porto Aktiv 127 / 117 40% 3 29.10.2026 -
Agustín Módica Gimnasia y Esgrima Aktiv 117 / 123 40% 1 29.10.2026 -
Fotis Ioannidis Rio Ave Aktiv 141 / 144 40% 1 29.10.2026 -
Alfonso Trezza Arouca Aktiv 120 / 125 40% 3 28.10.2026 -
Zé Leite Leixões Aktiv 112 / 109 40% 1 24.10.2026 -
Guilherme Arana Fluminense Aktiv 140 / 131 40% 2 22.10.2026 -
Bright Arrey-Mbi Braga Aktiv 131 / 141 40% 1 22.10.2026 -
Manuel Ospina Cortulua Aktiv 125 / 127 40% 1 20.10.2026 -
Ianis Stoica Estrela da Amadora Aktiv 116 / 109 40% 1 13.10.2026 -
João Palhinha Benfica Aktiv 149 / 159 40% 1 13.10.2026 -
Marcos Antonio Sport Recife Aktiv 138 / 144 40% 1 12.10.2026 -
Leonardo Borja La Equidad Aktiv 148 / 139 40% 1 11.10.2026 -
James Cardona La Equidad Aktiv 144 / 147 40% 1 11.10.2026 -
Negueba Mirassol Aktiv 120 / 117 40% 2 05.10.2026 Mehr Infos nötig
Isidro Pitta Bragantino Aktiv 127 / 128 40% 1 03.10.2026 -
Vangelis Pavlidis Twente Aktiv 150 / 146 40% 1 25.09.2026 -
Adnan Courtois KV Oostende Aktiv 132 / 124 40% 1 25.09.2026 -
Tamble Monteiro Rio Ave Aktiv 123 / 121 40% 1 16.09.2026 -
Dawda Camara Alverca Aktiv 122 / 123 40% 1 16.09.2026 -